sensor_id;sensor_type;location;lat;lon;timestamp;temperature;humidity
44047;DHT22;29713;-33.888;151.150;2022-11-04T00:02:07;18.60;99.90
44047;DHT22;29713;-33.888;151.150;2022-11-04T00:04:35;18.70;99.90
44047;DHT22;29713;-33.888;151.150;2022-11-04T00:07:02;18.80;99.90
44047;DHT22;29713;-33.888;151.150;2022-11-04T00:09:49;18.90;99.90
44047;DHT22;29713;-33.888;151.150;2022-11-04T00:12:16;19.10;99.90
44047;DHT22;29713;-33.888;151.150;2022-11-04T00:14:53;19.30;99.90
44047;DHT22;29713;-33.888;151.150;2022-11-04T00:17:40;19.40;99.90
44047;DHT22;29713;-33.888;151.150;2022-11-04T00:20:07;19.50;99.90
44047;DHT22;29713;-33.888;151.150;2022-11-04T00:22:52;19.50;99.90
44047;DHT22;29713;-33.888;151.150;2022-11-04T00:25:38;19.50;99.90
44047;DHT22;29713;-33.888;151.150;2022-11-04T00:28:23;19.50;99.90
44047;DHT22;29713;-33.888;151.150;2022-11-04T00:31:09;19.70;99.90
44047;DHT22;29713;-33.888;151.150;2022-11-04T00:33:56;19.80;99.90
44047;DHT22;29713;-33.888;151.150;2022-11-04T00:36:24;20.00;99.90
44047;DHT22;29713;-33.888;151.150;2022-11-04T00:38:52;20.20;99.90
44047;DHT22;29713;-33.888;151.150;2022-11-04T00:41:20;20.40;99.90
44047;DHT22;29713;-33.888;151.150;2022-11-04T00:43:56;20.60;99.90
44047;DHT22;29713;-33.888;151.150;2022-11-04T00:46:27;20.90;99.90
44047;DHT22;29713;-33.888;151.150;2022-11-04T00:48:55;21.10;99.90
44047;DHT22;29713;-33.888;151.150;2022-11-04T00:51:23;21.30;99.90
44047;DHT22;29713;-33.888;151.150;2022-11-04T00:53:51;21.40;99.90
44047;DHT22;29713;-33.888;151.150;2022-11-04T00:56:18;21.50;99.90
44047;DHT22;29713;-33.888;151.150;2022-11-04T00:58:46;21.60;99.90
44047;DHT22;29713;-33.888;151.150;2022-11-04T01:01:16;21.70;99.90
44047;DHT22;29713;-33.888;151.150;2022-11-04T01:03:45;22.10;99.90
44047;DHT22;29713;-33.888;151.150;2022-11-04T01:06:13;22.40;99.90
44047;DHT22;29713;-33.888;151.150;2022-11-04T01:08:40;22.60;99.90
44047;DHT22;29713;-33.888;151.150;2022-11-04T01:11:09;22.70;99.90
44047;DHT22;29713;-33.888;151.150;2022-11-04T01:13:37;23.20;99.90
44047;DHT22;29713;-33.888;151.150;2022-11-04T01:16:07;23.50;99.90
44047;DHT22;29713;-33.888;151.150;2022-11-04T01:18:35;23.90;99.90
44047;DHT22;29713;-33.888;151.150;2022-11-04T01:21:04;24.00;99.90
44047;DHT22;29713;-33.888;151.150;2022-11-04T01:23:34;24.10;99.90
44047;DHT22;29713;-33.888;151.150;2022-11-04T01:26:04;24.30;99.90
44047;DHT22;29713;-33.888;151.150;2022-11-04T01:28:32;24.30;99.90
44047;DHT22;29713;-33.888;151.150;2022-11-04T01:31:04;24.50;99.90
44047;DHT22;29713;-33.888;151.150;2022-11-04T01:33:31;24.70;99.90
44047;DHT22;29713;-33.888;151.150;2022-11-04T01:36:01;24.90;99.90
44047;DHT22;29713;-33.888;151.150;2022-11-04T01:38:29;24.60;99.90
44047;DHT22;29713;-33.888;151.150;2022-11-04T01:40:57;24.10;99.90
44047;DHT22;29713;-33.888;151.150;2022-11-04T01:43:52;23.60;99.90
44047;DHT22;29713;-33.888;151.150;2022-11-04T01:49:17;23.10;99.90
44047;DHT22;29713;-33.888;151.150;2022-11-04T01:51:52;23.00;99.90
44047;DHT22;29713;-33.888;151.150;2022-11-04T01:54:21;22.60;99.90
44047;DHT22;29713;-33.888;151.150;2022-11-04T01:56:49;22.50;99.90
44047;DHT22;29713;-33.888;151.150;2022-11-04T01:59:26;22.40;99.90
44047;DHT22;29713;-33.888;151.150;2022-11-04T02:01:54;22.30;99.90
44047;DHT22;29713;-33.888;151.150;2022-11-04T02:04:21;22.30;99.90
44047;DHT22;29713;-33.888;151.150;2022-11-04T02:06:59;22.30;99.90
44047;DHT22;29713;-33.888;151.150;2022-11-04T02:09:29;22.30;99.90
44047;DHT22;29713;-33.888;151.150;2022-11-04T02:11:57;22.40;99.90
44047;DHT22;29713;-33.888;151.150;2022-11-04T02:14:44;22.40;99.90
44047;DHT22;29713;-33.888;151.150;2022-11-04T02:17:24;22.50;99.90
44047;DHT22;29713;-33.888;151.150;2022-11-04T02:20:15;22.50;99.90
44047;DHT22;29713;-33.888;151.150;2022-11-04T02:31:56;23.20;99.90
44047;DHT22;29713;-33.888;151.150;2022-11-04T02:39:57;23.80;99.90
44047;DHT22;29713;-33.888;151.150;2022-11-04T02:45:48;23.60;99.90
44047;DHT22;29713;-33.888;151.150;2022-11-04T02:51:10;23.10;99.90
44047;DHT22;29713;-33.888;151.150;2022-11-04T02:53:50;23.00;99.90
44047;DHT22;29713;-33.888;151.150;2022-11-04T02:56:22;23.00;99.90
44047;DHT22;29713;-33.888;151.150;2022-11-04T02:59:21;22.90;99.90
44047;DHT22;29713;-33.888;151.150;2022-11-04T03:01:52;22.90;99.90
44047;DHT22;29713;-33.888;151.150;2022-11-04T03:04:29;22.90;99.90
44047;DHT22;29713;-33.888;151.150;2022-11-04T03:06:58;23.00;99.90
44047;DHT22;29713;-33.888;151.150;2022-11-04T03:09:29;23.10;99.90
44047;DHT22;29713;-33.888;151.150;2022-11-04T03:12:04;23.20;99.90
44047;DHT22;29713;-33.888;151.150;2022-11-04T03:14:43;23.10;99.90
44047;DHT22;29713;-33.888;151.150;2022-11-04T03:17:22;23.30;99.90
44047;DHT22;29713;-33.888;151.150;2022-11-04T03:19:55;23.30;99.90
44047;DHT22;29713;-33.888;151.150;2022-11-04T03:22:27;23.20;99.90
44047;DHT22;29713;-33.888;151.150;2022-11-04T03:24:55;23.40;99.90
44047;DHT22;29713;-33.888;151.150;2022-11-04T03:27:46;23.90;99.90
44047;DHT22;29713;-33.888;151.150;2022-11-04T03:30:17;24.70;99.90
44047;DHT22;29713;-33.888;151.150;2022-11-04T03:35:46;25.80;99.90
44047;DHT22;29713;-33.888;151.150;2022-11-04T03:38:14;26.20;99.90
44047;DHT22;29713;-33.888;151.150;2022-11-04T03:40:41;26.30;99.90
44047;DHT22;29713;-33.888;151.150;2022-11-04T03:43:22;26.70;99.90
44047;DHT22;29713;-33.888;151.150;2022-11-04T03:45:51;26.90;99.90
44047;DHT22;29713;-33.888;151.150;2022-11-04T03:48:18;26.70;99.90
44047;DHT22;29713;-33.888;151.150;2022-11-04T03:50:47;26.20;99.90
44047;DHT22;29713;-33.888;151.150;2022-11-04T03:53:22;25.80;99.90
44047;DHT22;29713;-33.888;151.150;2022-11-04T04:07:05;27.40;99.90
44047;DHT22;29713;-33.888;151.150;2022-11-04T04:12:54;27.30;99.90
44047;DHT22;29713;-33.888;151.150;2022-11-04T04:15:28;27.60;99.90
44047;DHT22;29713;-33.888;151.150;2022-11-04T04:18:02;27.40;99.90
44047;DHT22;29713;-33.888;151.150;2022-11-04T04:20:32;27.00;99.90
44047;DHT22;29713;-33.888;151.150;2022-11-04T04:23:13;26.40;99.90
44047;DHT22;29713;-33.888;151.150;2022-11-04T04:26:04;26.20;99.90
44047;DHT22;29713;-33.888;151.150;2022-11-04T04:28:52;25.90;99.90
44047;DHT22;29713;-33.888;151.150;2022-11-04T04:31:22;25.60;99.90
44047;DHT22;29713;-33.888;151.150;2022-11-04T04:34:09;25.80;99.90
44047;DHT22;29713;-33.888;151.150;2022-11-04T04:36:47;26.50;99.90
44047;DHT22;29713;-33.888;151.150;2022-11-04T04:39:18;26.80;99.90
44047;DHT22;29713;-33.888;151.150;2022-11-04T04:42:09;27.00;99.90
44047;DHT22;29713;-33.888;151.150;2022-11-04T04:44:55;26.90;99.90
44047;DHT22;29713;-33.888;151.150;2022-11-04T04:47:27;26.60;99.90
44047;DHT22;29713;-33.888;151.150;2022-11-04T04:49:58;26.00;99.90
44047;DHT22;29713;-33.888;151.150;2022-11-04T04:52:31;25.80;99.90
44047;DHT22;29713;-33.888;151.150;2022-11-04T04:54:59;25.40;99.90
44047;DHT22;29713;-33.888;151.150;2022-11-04T04:57:26;25.30;99.90
44047;DHT22;29713;-33.888;151.150;2022-11-04T04:59:54;25.40;99.90
44047;DHT22;29713;-33.888;151.150;2022-11-04T05:02:21;25.30;99.90
44047;DHT22;29713;-33.888;151.150;2022-11-04T05:04:48;24.90;99.90
44047;DHT22;29713;-33.888;151.150;2022-11-04T05:07:16;25.10;99.90
44047;DHT22;29713;-33.888;151.150;2022-11-04T05:09:43;24.90;99.90
44047;DHT22;29713;-33.888;151.150;2022-11-04T05:12:10;24.90;99.90
44047;DHT22;29713;-33.888;151.150;2022-11-04T05:14:38;24.80;99.90
44047;DHT22;29713;-33.888;151.150;2022-11-04T05:17:05;24.50;99.90
44047;DHT22;29713;-33.888;151.150;2022-11-04T05:19:32;24.30;99.90
44047;DHT22;29713;-33.888;151.150;2022-11-04T05:22:00;24.40;99.90
44047;DHT22;29713;-33.888;151.150;2022-11-04T05:24:27;24.50;99.90
44047;DHT22;29713;-33.888;151.150;2022-11-04T05:26:54;24.50;99.90
44047;DHT22;29713;-33.888;151.150;2022-11-04T05:29:22;24.30;99.90
44047;DHT22;29713;-33.888;151.150;2022-11-04T05:31:49;24.20;99.90
44047;DHT22;29713;-33.888;151.150;2022-11-04T05:34:17;24.40;99.90
44047;DHT22;29713;-33.888;151.150;2022-11-04T05:36:44;24.70;99.90
44047;DHT22;29713;-33.888;151.150;2022-11-04T05:39:12;25.10;99.90
44047;DHT22;29713;-33.888;151.150;2022-11-04T05:41:40;25.20;99.90
44047;DHT22;29713;-33.888;151.150;2022-11-04T05:44:08;25.40;99.90
44047;DHT22;29713;-33.888;151.150;2022-11-04T05:46:36;25.70;99.90
44047;DHT22;29713;-33.888;151.150;2022-11-04T05:49:04;26.00;99.90
44047;DHT22;29713;-33.888;151.150;2022-11-04T05:51:32;25.80;99.90
44047;DHT22;29713;-33.888;151.150;2022-11-04T05:54:00;25.50;99.90
44047;DHT22;29713;-33.888;151.150;2022-11-04T05:56:27;25.20;99.90
44047;DHT22;29713;-33.888;151.150;2022-11-04T05:58:55;25.00;99.90
44047;DHT22;29713;-33.888;151.150;2022-11-04T06:04:44;24.80;99.90
44047;DHT22;29713;-33.888;151.150;2022-11-04T06:07:11;24.90;99.90
44047;DHT22;29713;-33.888;151.150;2022-11-04T06:09:39;25.00;99.90
44047;DHT22;29713;-33.888;151.150;2022-11-04T06:12:11;24.90;99.90
44047;DHT22;29713;-33.888;151.150;2022-11-04T06:14:43;24.70;99.90
44047;DHT22;29713;-33.888;151.150;2022-11-04T06:17:18;24.30;99.90
44047;DHT22;29713;-33.888;151.150;2022-11-04T06:19:46;23.80;99.90
44047;DHT22;29713;-33.888;151.150;2022-11-04T06:22:15;23.80;99.90
44047;DHT22;29713;-33.888;151.150;2022-11-04T06:24:43;24.00;99.90
44047;DHT22;29713;-33.888;151.150;2022-11-04T06:27:11;24.30;99.90
44047;DHT22;29713;-33.888;151.150;2022-11-04T06:29:39;24.30;99.90
44047;DHT22;29713;-33.888;151.150;2022-11-04T06:32:11;24.20;99.90
44047;DHT22;29713;-33.888;151.150;2022-11-04T06:34:39;23.90;99.90
44047;DHT22;29713;-33.888;151.150;2022-11-04T06:37:07;23.70;99.90
44047;DHT22;29713;-33.888;151.150;2022-11-04T06:39:36;23.50;99.90
44047;DHT22;29713;-33.888;151.150;2022-11-04T06:42:04;23.20;99.90
44047;DHT22;29713;-33.888;151.150;2022-11-04T06:44:31;23.00;99.90
44047;DHT22;29713;-33.888;151.150;2022-11-04T06:47:02;22.80;99.90
44047;DHT22;29713;-33.888;151.150;2022-11-04T06:49:29;22.70;99.90
44047;DHT22;29713;-33.888;151.150;2022-11-04T06:51:57;22.40;99.90
44047;DHT22;29713;-33.888;151.150;2022-11-04T06:54:24;22.10;99.90
44047;DHT22;29713;-33.888;151.150;2022-11-04T06:56:51;21.80;99.90
44047;DHT22;29713;-33.888;151.150;2022-11-04T06:59:20;21.60;99.90
44047;DHT22;29713;-33.888;151.150;2022-11-04T07:01:49;21.40;99.90
44047;DHT22;29713;-33.888;151.150;2022-11-04T07:04:17;21.40;99.90
44047;DHT22;29713;-33.888;151.150;2022-11-04T07:06:44;21.30;99.90
44047;DHT22;29713;-33.888;151.150;2022-11-04T07:09:13;21.20;99.90
44047;DHT22;29713;-33.888;151.150;2022-11-04T07:11:42;21.10;99.90
44047;DHT22;29713;-33.888;151.150;2022-11-04T07:14:10;21.10;99.90
44047;DHT22;29713;-33.888;151.150;2022-11-04T07:16:38;21.20;99.90
44047;DHT22;29713;-33.888;151.150;2022-11-04T07:19:05;21.10;99.90
44047;DHT22;29713;-33.888;151.150;2022-11-04T07:21:33;21.00;99.90
44047;DHT22;29713;-33.888;151.150;2022-11-04T07:24:00;21.00;99.90
44047;DHT22;29713;-33.888;151.150;2022-11-04T07:26:28;21.00;99.90
44047;DHT22;29713;-33.888;151.150;2022-11-04T07:28:55;20.90;99.90
44047;DHT22;29713;-33.888;151.150;2022-11-04T07:31:25;20.90;99.90
44047;DHT22;29713;-33.888;151.150;2022-11-04T07:33:53;20.80;99.90
44047;DHT22;29713;-33.888;151.150;2022-11-04T07:36:20;20.70;99.90
44047;DHT22;29713;-33.888;151.150;2022-11-04T07:38:48;20.70;99.90
44047;DHT22;29713;-33.888;151.150;2022-11-04T07:41:16;20.70;99.90
44047;DHT22;29713;-33.888;151.150;2022-11-04T07:43:48;20.60;99.90
44047;DHT22;29713;-33.888;151.150;2022-11-04T07:46:17;20.40;99.90
44047;DHT22;29713;-33.888;151.150;2022-11-04T07:48:45;20.30;99.90
44047;DHT22;29713;-33.888;151.150;2022-11-04T07:51:14;20.10;99.90
44047;DHT22;29713;-33.888;151.150;2022-11-04T07:53:42;20.00;99.90
44047;DHT22;29713;-33.888;151.150;2022-11-04T07:56:11;20.00;99.90
44047;DHT22;29713;-33.888;151.150;2022-11-04T07:58:39;19.80;99.90
44047;DHT22;29713;-33.888;151.150;2022-11-04T08:01:12;19.80;99.90
44047;DHT22;29713;-33.888;151.150;2022-11-04T08:03:41;19.80;99.90
44047;DHT22;29713;-33.888;151.150;2022-11-04T08:06:11;19.70;99.90
44047;DHT22;29713;-33.888;151.150;2022-11-04T08:08:40;19.80;99.90
44047;DHT22;29713;-33.888;151.150;2022-11-04T08:11:14;19.80;99.90
44047;DHT22;29713;-33.888;151.150;2022-11-04T08:13:41;19.80;99.90
44047;DHT22;29713;-33.888;151.150;2022-11-04T08:16:17;19.80;99.90
44047;DHT22;29713;-33.888;151.150;2022-11-04T08:18:46;19.70;99.90
44047;DHT22;29713;-33.888;151.150;2022-11-04T08:21:14;19.70;99.90
44047;DHT22;29713;-33.888;151.150;2022-11-04T08:23:42;19.60;99.90
44047;DHT22;29713;-33.888;151.150;2022-11-04T08:26:16;19.40;99.90
44047;DHT22;29713;-33.888;151.150;2022-11-04T08:28:44;19.40;99.90
44047;DHT22;29713;-33.888;151.150;2022-11-04T08:31:18;19.40;99.90
44047;DHT22;29713;-33.888;151.150;2022-11-04T08:33:46;19.50;99.90
44047;DHT22;29713;-33.888;151.150;2022-11-04T08:36:19;19.50;99.90
44047;DHT22;29713;-33.888;151.150;2022-11-04T08:38:48;19.50;99.90
44047;DHT22;29713;-33.888;151.150;2022-11-04T08:41:17;19.50;99.90
44047;DHT22;29713;-33.888;151.150;2022-11-04T08:43:45;19.50;99.90
44047;DHT22;29713;-33.888;151.150;2022-11-04T08:46:13;19.50;99.90
44047;DHT22;29713;-33.888;151.150;2022-11-04T08:48:42;19.40;99.90
44047;DHT22;29713;-33.888;151.150;2022-11-04T08:51:15;19.40;99.90
44047;DHT22;29713;-33.888;151.150;2022-11-04T08:53:43;19.30;99.90
44047;DHT22;29713;-33.888;151.150;2022-11-04T08:56:16;19.30;99.90
44047;DHT22;29713;-33.888;151.150;2022-11-04T08:58:43;19.20;99.90
44047;DHT22;29713;-33.888;151.150;2022-11-04T09:01:11;19.10;99.90
44047;DHT22;29713;-33.888;151.150;2022-11-04T09:03:40;19.10;99.90
44047;DHT22;29713;-33.888;151.150;2022-11-04T09:06:11;19.10;99.90
44047;DHT22;29713;-33.888;151.150;2022-11-04T09:08:39;19.10;99.90
44047;DHT22;29713;-33.888;151.150;2022-11-04T09:11:11;19.10;99.90
44047;DHT22;29713;-33.888;151.150;2022-11-04T09:13:40;19.10;99.90
44047;DHT22;29713;-33.888;151.150;2022-11-04T09:16:08;19.00;99.90
44047;DHT22;29713;-33.888;151.150;2022-11-04T09:18:36;19.00;99.90
44047;DHT22;29713;-33.888;151.150;2022-11-04T09:21:05;19.00;99.90
44047;DHT22;29713;-33.888;151.150;2022-11-04T09:23:33;19.10;99.90
44047;DHT22;29713;-33.888;151.150;2022-11-04T09:26:20;19.10;99.90
44047;DHT22;29713;-33.888;151.150;2022-11-04T09:28:51;19.10;99.90
44047;DHT22;29713;-33.888;151.150;2022-11-04T09:31:19;19.10;99.90
44047;DHT22;29713;-33.888;151.150;2022-11-04T09:33:46;19.20;99.90
44047;DHT22;29713;-33.888;151.150;2022-11-04T09:36:14;19.20;99.90
44047;DHT22;29713;-33.888;151.150;2022-11-04T09:38:42;19.20;99.90
44047;DHT22;29713;-33.888;151.150;2022-11-04T09:46:38;19.00;99.90
44047;DHT22;29713;-33.888;151.150;2022-11-04T09:49:08;19.00;99.90
44047;DHT22;29713;-33.888;151.150;2022-11-04T09:51:38;19.00;99.90
44047;DHT22;29713;-33.888;151.150;2022-11-04T09:56:51;19.00;99.90
44047;DHT22;29713;-33.888;151.150;2022-11-04T09:59:31;19.00;99.90
44047;DHT22;29713;-33.888;151.150;2022-11-04T10:05:09;19.00;99.90
44047;DHT22;29713;-33.888;151.150;2022-11-04T10:26:46;18.90;99.90
44047;DHT22;29713;-33.888;151.150;2022-11-04T10:30:11;18.90;99.90
44047;DHT22;29713;-33.888;151.150;2022-11-04T10:35:14;18.90;99.90
44047;DHT22;29713;-33.888;151.150;2022-11-04T10:37:43;18.90;99.90
44047;DHT22;29713;-33.888;151.150;2022-11-04T10:40:30;18.90;99.90
44047;DHT22;29713;-33.888;151.150;2022-11-04T10:43:06;18.80;99.90
44047;DHT22;29713;-33.888;151.150;2022-11-04T10:45:41;18.80;99.90
44047;DHT22;29713;-33.888;151.150;2022-11-04T10:48:35;18.70;99.90
44047;DHT22;29713;-33.888;151.150;2022-11-04T10:51:06;18.70;99.90
44047;DHT22;29713;-33.888;151.150;2022-11-04T10:53:33;18.70;99.90
44047;DHT22;29713;-33.888;151.150;2022-11-04T10:56:23;18.60;99.90
44047;DHT22;29713;-33.888;151.150;2022-11-04T10:58:53;18.70;99.90
44047;DHT22;29713;-33.888;151.150;2022-11-04T11:03:56;18.60;99.90
44047;DHT22;29713;-33.888;151.150;2022-11-04T11:06:32;18.60;99.90
44047;DHT22;29713;-33.888;151.150;2022-11-04T11:09:17;18.60;99.90
44047;DHT22;29713;-33.888;151.150;2022-11-04T11:11:47;18.60;99.90
44047;DHT22;29713;-33.888;151.150;2022-11-04T11:16:56;18.60;99.90
44047;DHT22;29713;-33.888;151.150;2022-11-04T11:19:25;18.60;99.90
44047;DHT22;29713;-33.888;151.150;2022-11-04T11:21:54;18.60;99.90
44047;DHT22;29713;-33.888;151.150;2022-11-04T11:24:23;18.60;99.90
44047;DHT22;29713;-33.888;151.150;2022-11-04T11:27:02;18.60;99.90
44047;DHT22;29713;-33.888;151.150;2022-11-04T11:29:39;18.60;99.90
44047;DHT22;29713;-33.888;151.150;2022-11-04T11:32:39;18.50;99.90
44047;DHT22;29713;-33.888;151.150;2022-11-04T11:35:17;18.50;99.90
44047;DHT22;29713;-33.888;151.150;2022-11-04T11:37:46;18.50;99.90
44047;DHT22;29713;-33.888;151.150;2022-11-04T11:40:27;18.50;99.90
44047;DHT22;29713;-33.888;151.150;2022-11-04T11:42:55;18.40;99.90
44047;DHT22;29713;-33.888;151.150;2022-11-04T11:45:23;18.30;99.90
44047;DHT22;29713;-33.888;151.150;2022-11-04T11:47:52;18.30;99.90
44047;DHT22;29713;-33.888;151.150;2022-11-04T11:50:27;18.20;99.90
44047;DHT22;29713;-33.888;151.150;2022-11-04T11:53:19;18.20;99.90
44047;DHT22;29713;-33.888;151.150;2022-11-04T11:59:25;18.20;99.90
44047;DHT22;29713;-33.888;151.150;2022-11-04T12:04:41;18.10;99.90
44047;DHT22;29713;-33.888;151.150;2022-11-04T12:09:58;18.20;99.90
44047;DHT22;29713;-33.888;151.150;2022-11-04T12:15:34;18.10;99.90
44047;DHT22;29713;-33.888;151.150;2022-11-04T12:23:57;18.00;99.90
44047;DHT22;29713;-33.888;151.150;2022-11-04T12:38:03;17.80;99.90
44047;DHT22;29713;-33.888;151.150;2022-11-04T12:40:26;17.80;99.90
44047;DHT22;29713;-33.888;151.150;2022-11-04T12:43:17;17.70;99.90
44047;DHT22;29713;-33.888;151.150;2022-11-04T12:46:04;17.70;99.90
44047;DHT22;29713;-33.888;151.150;2022-11-04T12:51:36;17.70;99.90
44047;DHT22;29713;-33.888;151.150;2022-11-04T13:08:27;17.50;99.90
44047;DHT22;29713;-33.888;151.150;2022-11-04T13:10:57;17.50;99.90
44047;DHT22;29713;-33.888;151.150;2022-11-04T13:13:35;17.50;99.90
44047;DHT22;29713;-33.888;151.150;2022-11-04T13:16:07;17.40;99.90
44047;DHT22;29713;-33.888;151.150;2022-11-04T13:18:38;17.40;99.90
44047;DHT22;29713;-33.888;151.150;2022-11-04T13:21:08;17.30;99.90
44047;DHT22;29713;-33.888;151.150;2022-11-04T13:24:03;17.30;99.90
44047;DHT22;29713;-33.888;151.150;2022-11-04T13:26:30;17.20;99.90
44047;DHT22;29713;-33.888;151.150;2022-11-04T13:29:10;17.20;99.90
44047;DHT22;29713;-33.888;151.150;2022-11-04T13:34:27;17.10;99.90
44047;DHT22;29713;-33.888;151.150;2022-11-04T13:39:49;17.10;99.90
44047;DHT22;29713;-33.888;151.150;2022-11-04T13:42:25;17.00;99.90
44047;DHT22;29713;-33.888;151.150;2022-11-04T13:45:02;16.90;99.90
44047;DHT22;29713;-33.888;151.150;2022-11-04T13:47:36;16.90;99.90
44047;DHT22;29713;-33.888;151.150;2022-11-04T13:50:04;16.90;99.90
44047;DHT22;29713;-33.888;151.150;2022-11-04T13:52:32;16.90;99.90
44047;DHT22;29713;-33.888;151.150;2022-11-04T13:55:15;16.90;99.90
44047;DHT22;29713;-33.888;151.150;2022-11-04T13:57:59;16.80;99.90
44047;DHT22;29713;-33.888;151.150;2022-11-04T14:00:29;16.80;99.90
44047;DHT22;29713;-33.888;151.150;2022-11-04T14:06:01;16.80;99.90
44047;DHT22;29713;-33.888;151.150;2022-11-04T14:08:29;16.70;99.90
44047;DHT22;29713;-33.888;151.150;2022-11-04T14:11:01;16.70;99.90
44047;DHT22;29713;-33.888;151.150;2022-11-04T14:18:33;16.70;99.90
44047;DHT22;29713;-33.888;151.150;2022-11-04T14:21:25;16.70;99.90
44047;DHT22;29713;-33.888;151.150;2022-11-04T14:23:58;16.60;99.90
44047;DHT22;29713;-33.888;151.150;2022-11-04T14:26:28;16.60;99.90
44047;DHT22;29713;-33.888;151.150;2022-11-04T14:29:24;16.60;99.90
44047;DHT22;29713;-33.888;151.150;2022-11-04T14:31:54;16.60;99.90
44047;DHT22;29713;-33.888;151.150;2022-11-04T14:34:36;16.60;99.90
44047;DHT22;29713;-33.888;151.150;2022-11-04T14:37:20;16.60;99.90
44047;DHT22;29713;-33.888;151.150;2022-11-04T14:39:57;16.60;99.90
44047;DHT22;29713;-33.888;151.150;2022-11-04T14:45:19;16.60;99.90
44047;DHT22;29713;-33.888;151.150;2022-11-04T14:47:51;16.60;99.90
44047;DHT22;29713;-33.888;151.150;2022-11-04T14:50:23;16.60;99.90
44047;DHT22;29713;-33.888;151.150;2022-11-04T14:52:59;16.50;99.90
44047;DHT22;29713;-33.888;151.150;2022-11-04T14:55:30;16.50;99.90
44047;DHT22;29713;-33.888;151.150;2022-11-04T14:58:24;16.50;99.90
44047;DHT22;29713;-33.888;151.150;2022-11-04T15:00:58;16.60;99.90
44047;DHT22;29713;-33.888;151.150;2022-11-04T15:03:36;16.50;99.90
44047;DHT22;29713;-33.888;151.150;2022-11-04T15:06:05;16.50;99.90
44047;DHT22;29713;-33.888;151.150;2022-11-04T15:08:42;16.50;99.90
44047;DHT22;29713;-33.888;151.150;2022-11-04T15:11:12;16.40;99.90
44047;DHT22;29713;-33.888;151.150;2022-11-04T15:13:51;16.40;99.90
44047;DHT22;29713;-33.888;151.150;2022-11-04T15:16:27;16.40;99.90
44047;DHT22;29713;-33.888;151.150;2022-11-04T15:18:57;16.40;99.90
44047;DHT22;29713;-33.888;151.150;2022-11-04T15:21:25;16.30;99.90
44047;DHT22;29713;-33.888;151.150;2022-11-04T15:23:53;16.30;99.90
44047;DHT22;29713;-33.888;151.150;2022-11-04T15:26:22;16.30;99.90
44047;DHT22;29713;-33.888;151.150;2022-11-04T15:28:52;16.30;99.90
44047;DHT22;29713;-33.888;151.150;2022-11-04T15:33:51;16.30;99.90
44047;DHT22;29713;-33.888;151.150;2022-11-04T15:36:34;16.30;99.90
44047;DHT22;29713;-33.888;151.150;2022-11-04T15:39:10;16.30;99.90
44047;DHT22;29713;-33.888;151.150;2022-11-04T15:41:40;16.30;99.90
44047;DHT22;29713;-33.888;151.150;2022-11-04T15:44:28;16.30;99.90
44047;DHT22;29713;-33.888;151.150;2022-11-04T15:47:01;16.30;99.90
44047;DHT22;29713;-33.888;151.150;2022-11-04T15:49:32;16.30;99.90
44047;DHT22;29713;-33.888;151.150;2022-11-04T15:52:10;16.30;99.90
44047;DHT22;29713;-33.888;151.150;2022-11-04T15:54:47;16.30;99.90
44047;DHT22;29713;-33.888;151.150;2022-11-04T16:02:58;16.30;99.90
44047;DHT22;29713;-33.888;151.150;2022-11-04T16:05:34;16.20;99.90
44047;DHT22;29713;-33.888;151.150;2022-11-04T16:08:22;16.30;99.90
44047;DHT22;29713;-33.888;151.150;2022-11-04T16:11:06;16.30;99.90
44047;DHT22;29713;-33.888;151.150;2022-11-04T16:13:33;16.30;99.90
44047;DHT22;29713;-33.888;151.150;2022-11-04T16:18:41;16.30;99.90
44047;DHT22;29713;-33.888;151.150;2022-11-04T16:21:20;16.30;99.90
44047;DHT22;29713;-33.888;151.150;2022-11-04T16:23:50;16.30;99.90
44047;DHT22;29713;-33.888;151.150;2022-11-04T16:26:24;16.40;99.90
44047;DHT22;29713;-33.888;151.150;2022-11-04T16:28:56;16.30;99.90
44047;DHT22;29713;-33.888;151.150;2022-11-04T16:31:33;16.40;99.90
44047;DHT22;29713;-33.888;151.150;2022-11-04T16:34:01;16.40;99.90
44047;DHT22;29713;-33.888;151.150;2022-11-04T16:36:28;16.50;99.90
44047;DHT22;29713;-33.888;151.150;2022-11-04T16:38:58;16.50;99.90
44047;DHT22;29713;-33.888;151.150;2022-11-04T16:41:28;16.60;99.90
44047;DHT22;29713;-33.888;151.150;2022-11-04T16:43:56;16.50;99.90
44047;DHT22;29713;-33.888;151.150;2022-11-04T16:46:25;16.50;99.90
44047;DHT22;29713;-33.888;151.150;2022-11-04T16:48:52;16.50;99.90
44047;DHT22;29713;-33.888;151.150;2022-11-04T16:51:21;16.60;99.90
44047;DHT22;29713;-33.888;151.150;2022-11-04T16:53:53;16.60;99.90
44047;DHT22;29713;-33.888;151.150;2022-11-04T16:56:22;16.60;99.90
44047;DHT22;29713;-33.888;151.150;2022-11-04T16:58:51;16.50;99.90
44047;DHT22;29713;-33.888;151.150;2022-11-04T17:01:19;16.50;99.90
44047;DHT22;29713;-33.888;151.150;2022-11-04T17:03:46;16.50;99.90
44047;DHT22;29713;-33.888;151.150;2022-11-04T17:06:15;16.50;99.90
44047;DHT22;29713;-33.888;151.150;2022-11-04T17:08:43;16.50;99.90
44047;DHT22;29713;-33.888;151.150;2022-11-04T17:11:10;16.50;99.90
44047;DHT22;29713;-33.888;151.150;2022-11-04T17:13:38;16.50;99.90
44047;DHT22;29713;-33.888;151.150;2022-11-04T17:16:08;16.50;99.90
44047;DHT22;29713;-33.888;151.150;2022-11-04T17:18:36;16.40;99.90
44047;DHT22;29713;-33.888;151.150;2022-11-04T17:21:11;16.40;99.90
44047;DHT22;29713;-33.888;151.150;2022-11-04T17:23:39;16.40;99.90
44047;DHT22;29713;-33.888;151.150;2022-11-04T17:26:07;16.40;99.90
44047;DHT22;29713;-33.888;151.150;2022-11-04T17:28:35;16.30;99.90
44047;DHT22;29713;-33.888;151.150;2022-11-04T17:31:03;16.30;99.90
44047;DHT22;29713;-33.888;151.150;2022-11-04T17:33:30;16.20;99.90
44047;DHT22;29713;-33.888;151.150;2022-11-04T17:35:57;16.30;99.90
44047;DHT22;29713;-33.888;151.150;2022-11-04T17:38:25;16.30;99.90
44047;DHT22;29713;-33.888;151.150;2022-11-04T17:40:52;16.20;99.90
44047;DHT22;29713;-33.888;151.150;2022-11-04T17:43:42;16.20;99.90
44047;DHT22;29713;-33.888;151.150;2022-11-04T17:46:41;16.20;99.90
44047;DHT22;29713;-33.888;151.150;2022-11-04T17:49:17;16.20;99.90
44047;DHT22;29713;-33.888;151.150;2022-11-04T17:51:47;16.20;99.90
44047;DHT22;29713;-33.888;151.150;2022-11-04T17:54:14;16.20;99.90
44047;DHT22;29713;-33.888;151.150;2022-11-04T17:56:42;16.10;99.90